sensor_id;sensor_type;location;lat;lon;timestamp;P1;durP1;ratioP1;P2;durP2;ratioP2
23078;SDS011;11707;50.830;4.364;2023-07-31T00:00:41;20.05;;;5.80;;
23078;SDS011;11707;50.830;4.364;2023-07-31T00:03:07;15.55;;;5.55;;
23078;SDS011;11707;50.830;4.364;2023-07-31T00:05:33;27.65;;;6.47;;
23078;SDS011;11707;50.830;4.364;2023-07-31T00:08:01;10.10;;;4.57;;
23078;SDS011;11707;50.830;4.364;2023-07-31T00:10:27;20.25;;;6.07;;
23078;SDS011;11707;50.830;4.364;2023-07-31T00:12:52;21.33;;;6.28;;
23078;SDS011;11707;50.830;4.364;2023-07-31T00:15:18;14.48;;;5.35;;
23078;SDS011;11707;50.830;4.364;2023-07-31T00:17:46;14.23;;;4.65;;
23078;SDS011;11707;50.830;4.364;2023-07-31T00:20:12;12.93;;;5.05;;
23078;SDS011;11707;50.830;4.364;2023-07-31T00:22:38;20.95;;;6.43;;
23078;SDS011;11707;50.830;4.364;2023-07-31T00:25:06;22.80;;;6.95;;
23078;SDS011;11707;50.830;4.364;2023-07-31T00:27:32;16.70;;;5.63;;
23078;SDS011;11707;50.830;4.364;2023-07-31T00:29:58;24.05;;;5.50;;
23078;SDS011;11707;50.830;4.364;2023-07-31T00:32:23;14.63;;;5.40;;
23078;SDS011;11707;50.830;4.364;2023-07-31T00:34:49;15.52;;;5.63;;
23078;SDS011;11707;50.830;4.364;2023-07-31T00:37:15;16.85;;;5.75;;
23078;SDS011;11707;50.830;4.364;2023-07-31T00:39:40;17.45;;;5.55;;
23078;SDS011;11707;50.830;4.364;2023-07-31T00:42:06;17.08;;;5.93;;
23078;SDS011;11707;50.830;4.364;2023-07-31T00:44:34;12.77;;;5.50;;
23078;SDS011;11707;50.830;4.364;2023-07-31T00:47:02;10.75;;;5.10;;
23078;SDS011;11707;50.830;4.364;2023-07-31T00:49:28;17.75;;;5.35;;
23078;SDS011;11707;50.830;4.364;2023-07-31T00:51:53;15.50;;;5.50;;
23078;SDS011;11707;50.830;4.364;2023-07-31T00:54:22;15.43;;;5.70;;
23078;SDS011;11707;50.830;4.364;2023-07-31T00:56:47;12.50;;;5.25;;
23078;SDS011;11707;50.830;4.364;2023-07-31T00:59:15;12.35;;;4.90;;
23078;SDS011;11707;50.830;4.364;2023-07-31T01:01:43;15.52;;;5.18;;
23078;SDS011;11707;50.830;4.364;2023-07-31T01:04:11;11.82;;;4.82;;
23078;SDS011;11707;50.830;4.364;2023-07-31T01:09:38;14.25;;;4.43;;
23078;SDS011;11707;50.830;4.364;2023-07-31T01:12:10;14.30;;;4.95;;
23078;SDS011;11707;50.830;4.364;2023-07-31T01:14:39;12.45;;;4.88;;
23078;SDS011;11707;50.830;4.364;2023-07-31T01:17:07;11.45;;;5.22;;
23078;SDS011;11707;50.830;4.364;2023-07-31T01:19:35;12.60;;;5.07;;
23078;SDS011;11707;50.830;4.364;2023-07-31T01:22:12;13.95;;;4.93;;
23078;SDS011;11707;50.830;4.364;2023-07-31T01:28:08;15.75;;;4.85;;
23078;SDS011;11707;50.830;4.364;2023-07-31T01:30:40;11.13;;;5.20;;
23078;SDS011;11707;50.830;4.364;2023-07-31T01:33:08;12.75;;;5.30;;
23078;SDS011;11707;50.830;4.364;2023-07-31T01:35:34;15.48;;;4.93;;
23078;SDS011;11707;50.830;4.364;2023-07-31T01:38:01;11.57;;;5.22;;
23078;SDS011;11707;50.830;4.364;2023-07-31T01:40:27;12.65;;;5.32;;
23078;SDS011;11707;50.830;4.364;2023-07-31T01:42:52;18.17;;;6.10;;
23078;SDS011;11707;50.830;4.364;2023-07-31T01:45:18;13.40;;;5.13;;
23078;SDS011;11707;50.830;4.364;2023-07-31T01:47:44;11.93;;;5.18;;
23078;SDS011;11707;50.830;4.364;2023-07-31T01:50:10;14.95;;;5.03;;
23078;SDS011;11707;50.830;4.364;2023-07-31T01:52:36;14.35;;;6.07;;
23078;SDS011;11707;50.830;4.364;2023-07-31T01:55:01;11.73;;;5.10;;
23078;SDS011;11707;50.830;4.364;2023-07-31T01:57:27;17.02;;;6.18;;
23078;SDS011;11707;50.830;4.364;2023-07-31T01:59:53;14.07;;;5.60;;
23078;SDS011;11707;50.830;4.364;2023-07-31T02:02:21;19.02;;;6.47;;
23078;SDS011;11707;50.830;4.364;2023-07-31T02:04:48;16.63;;;5.80;;
23078;SDS011;11707;50.830;4.364;2023-07-31T02:07:14;13.80;;;6.10;;
23078;SDS011;11707;50.830;4.364;2023-07-31T02:09:39;8.73;;;4.68;;
23078;SDS011;11707;50.830;4.364;2023-07-31T02:12:05;14.48;;;5.60;;
23078;SDS011;11707;50.830;4.364;2023-07-31T02:14:35;16.52;;;5.65;;
23078;SDS011;11707;50.830;4.364;2023-07-31T02:17:01;12.73;;;5.75;;
23078;SDS011;11707;50.830;4.364;2023-07-31T02:19:26;11.90;;;6.13;;
23078;SDS011;11707;50.830;4.364;2023-07-31T02:21:52;16.08;;;6.30;;
23078;SDS011;11707;50.830;4.364;2023-07-31T02:24:18;16.60;;;5.82;;
23078;SDS011;11707;50.830;4.364;2023-07-31T02:26:43;16.45;;;6.13;;
23078;SDS011;11707;50.830;4.364;2023-07-31T02:29:09;14.95;;;6.07;;
23078;SDS011;11707;50.830;4.364;2023-07-31T02:31:34;10.50;;;5.20;;
23078;SDS011;11707;50.830;4.364;2023-07-31T02:34:00;8.55;;;5.05;;
23078;SDS011;11707;50.830;4.364;2023-07-31T02:36:26;11.43;;;5.40;;
23078;SDS011;11707;50.830;4.364;2023-07-31T02:38:51;10.10;;;4.53;;
23078;SDS011;11707;50.830;4.364;2023-07-31T02:41:17;14.27;;;5.88;;
23078;SDS011;11707;50.830;4.364;2023-07-31T02:43:43;10.27;;;4.88;;
23078;SDS011;11707;50.830;4.364;2023-07-31T02:46:09;7.22;;;4.40;;
23078;SDS011;11707;50.830;4.364;2023-07-31T02:48:35;7.43;;;4.43;;
23078;SDS011;11707;50.830;4.364;2023-07-31T02:51:00;10.63;;;4.28;;
23078;SDS011;11707;50.830;4.364;2023-07-31T02:53:26;8.73;;;4.00;;
23078;SDS011;11707;50.830;4.364;2023-07-31T02:55:52;10.48;;;4.28;;
23078;SDS011;11707;50.830;4.364;2023-07-31T02:58:17;7.80;;;4.50;;
23078;SDS011;11707;50.830;4.364;2023-07-31T03:00:43;8.60;;;4.38;;
23078;SDS011;11707;50.830;4.364;2023-07-31T03:03:09;10.18;;;4.88;;
23078;SDS011;11707;50.830;4.364;2023-07-31T03:05:37;8.93;;;4.68;;
23078;SDS011;11707;50.830;4.364;2023-07-31T03:08:06;9.55;;;4.18;;
23078;SDS011;11707;50.830;4.364;2023-07-31T03:10:32;6.72;;;3.70;;
23078;SDS011;11707;50.830;4.364;2023-07-31T03:12:58;10.18;;;3.53;;
23078;SDS011;11707;50.830;4.364;2023-07-31T03:15:23;10.88;;;4.35;;
23078;SDS011;11707;50.830;4.364;2023-07-31T03:17:49;10.25;;;4.35;;
23078;SDS011;11707;50.830;4.364;2023-07-31T03:20:15;11.27;;;4.65;;
23078;SDS011;11707;50.830;4.364;2023-07-31T03:22:40;6.50;;;3.88;;
23078;SDS011;11707;50.830;4.364;2023-07-31T03:25:06;10.13;;;5.13;;
23078;SDS011;11707;50.830;4.364;2023-07-31T03:27:32;10.10;;;4.72;;
23078;SDS011;11707;50.830;4.364;2023-07-31T03:29:57;12.07;;;4.15;;
23078;SDS011;11707;50.830;4.364;2023-07-31T03:32:26;7.88;;;4.57;;
23078;SDS011;11707;50.830;4.364;2023-07-31T03:34:52;10.07;;;4.82;;
23078;SDS011;11707;50.830;4.364;2023-07-31T03:37:17;12.10;;;5.05;;
23078;SDS011;11707;50.830;4.364;2023-07-31T03:39:43;9.90;;;5.07;;
23078;SDS011;11707;50.830;4.364;2023-07-31T03:42:09;8.30;;;4.72;;
23078;SDS011;11707;50.830;4.364;2023-07-31T03:44:34;14.05;;;6.03;;
23078;SDS011;11707;50.830;4.364;2023-07-31T03:47:00;11.07;;;5.28;;
23078;SDS011;11707;50.830;4.364;2023-07-31T03:49:27;11.60;;;5.43;;
23078;SDS011;11707;50.830;4.364;2023-07-31T03:51:53;8.57;;;4.78;;
23078;SDS011;11707;50.830;4.364;2023-07-31T03:54:21;14.45;;;4.57;;
23078;SDS011;11707;50.830;4.364;2023-07-31T03:56:47;10.93;;;4.70;;
23078;SDS011;11707;50.830;4.364;2023-07-31T03:59:12;16.45;;;4.95;;
23078;SDS011;11707;50.830;4.364;2023-07-31T04:01:38;13.07;;;5.35;;
23078;SDS011;11707;50.830;4.364;2023-07-31T04:04:04;9.18;;;5.13;;
23078;SDS011;11707;50.830;4.364;2023-07-31T04:06:30;9.82;;;4.32;;
23078;SDS011;11707;50.830;4.364;2023-07-31T04:08:56;11.82;;;4.13;;
23078;SDS011;11707;50.830;4.364;2023-07-31T04:11:22;9.23;;;4.70;;
23078;SDS011;11707;50.830;4.364;2023-07-31T04:13:48;11.80;;;4.90;;
23078;SDS011;11707;50.830;4.364;2023-07-31T04:16:14;10.75;;;4.57;;
23078;SDS011;11707;50.830;4.364;2023-07-31T04:18:39;11.15;;;5.18;;
23078;SDS011;11707;50.830;4.364;2023-07-31T04:21:05;11.95;;;5.47;;
23078;SDS011;11707;50.830;4.364;2023-07-31T04:23:31;13.00;;;4.50;;
23078;SDS011;11707;50.830;4.364;2023-07-31T04:25:56;10.38;;;4.85;;
23078;SDS011;11707;50.830;4.364;2023-07-31T04:28:22;10.18;;;4.55;;
23078;SDS011;11707;50.830;4.364;2023-07-31T04:30:51;8.30;;;4.40;;
23078;SDS011;11707;50.830;4.364;2023-07-31T04:33:19;7.80;;;4.88;;
23078;SDS011;11707;50.830;4.364;2023-07-31T04:35:49;14.38;;;4.63;;
23078;SDS011;11707;50.830;4.364;2023-07-31T04:38:17;12.05;;;4.45;;
23078;SDS011;11707;50.830;4.364;2023-07-31T04:40:47;11.43;;;4.25;;
23078;SDS011;11707;50.830;4.364;2023-07-31T04:43:15;9.70;;;3.85;;
23078;SDS011;11707;50.830;4.364;2023-07-31T04:45:45;9.32;;;4.72;;
23078;SDS011;11707;50.830;4.364;2023-07-31T04:48:13;9.55;;;4.10;;
23078;SDS011;11707;50.830;4.364;2023-07-31T04:50:39;11.18;;;5.78;;
23078;SDS011;11707;50.830;4.364;2023-07-31T04:53:05;9.45;;;4.47;;
23078;SDS011;11707;50.830;4.364;2023-07-31T04:55:33;12.30;;;4.45;;
23078;SDS011;11707;50.830;4.364;2023-07-31T04:57:59;8.88;;;3.97;;
23078;SDS011;11707;50.830;4.364;2023-07-31T05:00:25;9.98;;;4.57;;
23078;SDS011;11707;50.830;4.364;2023-07-31T05:02:50;11.05;;;5.03;;
23078;SDS011;11707;50.830;4.364;2023-07-31T05:05:18;9.02;;;3.70;;
23078;SDS011;11707;50.830;4.364;2023-07-31T05:07:44;9.80;;;4.30;;
23078;SDS011;11707;50.830;4.364;2023-07-31T05:10:09;11.75;;;4.43;;
23078;SDS011;11707;50.830;4.364;2023-07-31T05:12:35;9.88;;;3.45;;
23078;SDS011;11707;50.830;4.364;2023-07-31T05:15:01;9.02;;;4.78;;
23078;SDS011;11707;50.830;4.364;2023-07-31T05:17:27;9.60;;;4.63;;
23078;SDS011;11707;50.830;4.364;2023-07-31T05:19:52;11.57;;;4.88;;
23078;SDS011;11707;50.830;4.364;2023-07-31T05:22:20;8.63;;;5.18;;
23078;SDS011;11707;50.830;4.364;2023-07-31T05:24:46;12.38;;;5.07;;
23078;SDS011;11707;50.830;4.364;2023-07-31T05:27:12;10.90;;;4.97;;
23078;SDS011;11707;50.830;4.364;2023-07-31T05:29:43;9.68;;;4.75;;
23078;SDS011;11707;50.830;4.364;2023-07-31T05:32:09;10.82;;;4.68;;
23078;SDS011;11707;50.830;4.364;2023-07-31T05:34:37;8.00;;;4.60;;
23078;SDS011;11707;50.830;4.364;2023-07-31T05:37:03;7.57;;;4.68;;
23078;SDS011;11707;50.830;4.364;2023-07-31T05:39:29;10.60;;;4.10;;
23078;SDS011;11707;50.830;4.364;2023-07-31T05:41:55;9.48;;;4.15;;
23078;SDS011;11707;50.830;4.364;2023-07-31T05:44:20;11.88;;;4.90;;
23078;SDS011;11707;50.830;4.364;2023-07-31T05:46:48;12.15;;;4.60;;
23078;SDS011;11707;50.830;4.364;2023-07-31T05:49:14;15.82;;;5.03;;
23078;SDS011;11707;50.830;4.364;2023-07-31T05:51:39;12.15;;;5.20;;
23078;SDS011;11707;50.830;4.364;2023-07-31T05:54:05;13.13;;;4.30;;
23078;SDS011;11707;50.830;4.364;2023-07-31T05:56:31;8.57;;;4.13;;
23078;SDS011;11707;50.830;4.364;2023-07-31T05:59:01;16.23;;;5.30;;
23078;SDS011;11707;50.830;4.364;2023-07-31T06:01:30;9.07;;;4.55;;
23078;SDS011;11707;50.830;4.364;2023-07-31T06:03:55;10.57;;;4.65;;
23078;SDS011;11707;50.830;4.364;2023-07-31T06:06:21;9.35;;;4.40;;
23078;SDS011;11707;50.830;4.364;2023-07-31T06:08:47;14.10;;;4.93;;
23078;SDS011;11707;50.830;4.364;2023-07-31T06:11:12;14.32;;;5.05;;
23078;SDS011;11707;50.830;4.364;2023-07-31T06:13:38;10.75;;;4.38;;
23078;SDS011;11707;50.830;4.364;2023-07-31T06:16:08;12.80;;;4.00;;
23078;SDS011;11707;50.830;4.364;2023-07-31T06:18:33;9.65;;;4.25;;
23078;SDS011;11707;50.830;4.364;2023-07-31T06:20:59;9.32;;;4.32;;
23078;SDS011;11707;50.830;4.364;2023-07-31T06:23:27;11.13;;;4.22;;
23078;SDS011;11707;50.830;4.364;2023-07-31T06:25:53;12.20;;;4.50;;
23078;SDS011;11707;50.830;4.364;2023-07-31T06:28:18;7.75;;;3.55;;
23078;SDS011;11707;50.830;4.364;2023-07-31T06:30:47;8.32;;;4.35;;
23078;SDS011;11707;50.830;4.364;2023-07-31T06:33:14;13.55;;;3.22;;
23078;SDS011;11707;50.830;4.364;2023-07-31T06:35:40;10.65;;;4.78;;
23078;SDS011;11707;50.830;4.364;2023-07-31T06:38:06;12.27;;;3.97;;
23078;SDS011;11707;50.830;4.364;2023-07-31T06:40:31;9.45;;;4.15;;
23078;SDS011;11707;50.830;4.364;2023-07-31T06:42:57;11.45;;;4.53;;
23078;SDS011;11707;50.830;4.364;2023-07-31T06:45:23;7.47;;;4.28;;
23078;SDS011;11707;50.830;4.364;2023-07-31T06:47:48;9.27;;;3.83;;
23078;SDS011;11707;50.830;4.364;2023-07-31T06:50:14;8.70;;;3.75;;
23078;SDS011;11707;50.830;4.364;2023-07-31T06:52:42;6.88;;;3.70;;
23078;SDS011;11707;50.830;4.364;2023-07-31T06:55:18;8.07;;;3.72;;
23078;SDS011;11707;50.830;4.364;2023-07-31T06:57:45;13.73;;;4.28;;
23078;SDS011;11707;50.830;4.364;2023-07-31T07:00:12;6.90;;;3.88;;
23078;SDS011;11707;50.830;4.364;2023-07-31T07:02:40;7.53;;;3.60;;
23078;SDS011;11707;50.830;4.364;2023-07-31T07:05:06;7.63;;;3.20;;
23078;SDS011;11707;50.830;4.364;2023-07-31T07:07:33;6.85;;;3.10;;
23078;SDS011;11707;50.830;4.364;2023-07-31T07:09:59;7.95;;;3.33;;
23078;SDS011;11707;50.830;4.364;2023-07-31T07:12:24;6.40;;;3.17;;
23078;SDS011;11707;50.830;4.364;2023-07-31T07:14:53;8.15;;;3.30;;
23078;SDS011;11707;50.830;4.364;2023-07-31T07:17:19;6.47;;;3.55;;
23078;SDS011;11707;50.830;4.364;2023-07-31T07:19:44;9.20;;;4.20;;
23078;SDS011;11707;50.830;4.364;2023-07-31T07:22:13;8.30;;;3.50;;
23078;SDS011;11707;50.830;4.364;2023-07-31T07:24:39;13.38;;;3.20;;
23078;SDS011;11707;50.830;4.364;2023-07-31T07:27:04;9.00;;;3.70;;
23078;SDS011;11707;50.830;4.364;2023-07-31T07:29:30;7.57;;;3.10;;
23078;SDS011;11707;50.830;4.364;2023-07-31T07:31:56;7.53;;;3.75;;
23078;SDS011;11707;50.830;4.364;2023-07-31T07:34:27;14.55;;;3.65;;
23078;SDS011;11707;50.830;4.364;2023-07-31T07:36:53;8.55;;;3.22;;
23078;SDS011;11707;50.830;4.364;2023-07-31T07:39:19;7.40;;;3.10;;
23078;SDS011;11707;50.830;4.364;2023-07-31T07:41:45;6.10;;;3.13;;
23078;SDS011;11707;50.830;4.364;2023-07-31T07:44:11;5.90;;;3.33;;
23078;SDS011;11707;50.830;4.364;2023-07-31T07:46:37;10.00;;;3.47;;
23078;SDS011;11707;50.830;4.364;2023-07-31T07:49:05;9.18;;;3.38;;
23078;SDS011;11707;50.830;4.364;2023-07-31T07:51:31;8.40;;;3.20;;
23078;SDS011;11707;50.830;4.364;2023-07-31T07:53:57;8.10;;;3.60;;
23078;SDS011;11707;50.830;4.364;2023-07-31T07:56:24;5.80;;;3.10;;
23078;SDS011;11707;50.830;4.364;2023-07-31T07:58:54;8.88;;;3.63;;
23078;SDS011;11707;50.830;4.364;2023-07-31T08:01:19;8.88;;;4.22;;
23078;SDS011;11707;50.830;4.364;2023-07-31T08:03:45;8.07;;;3.28;;
23078;SDS011;11707;50.830;4.364;2023-07-31T08:06:12;7.22;;;3.35;;
23078;SDS011;11707;50.830;4.364;2023-07-31T08:08:40;9.10;;;3.03;;
23078;SDS011;11707;50.830;4.364;2023-07-31T08:11:10;6.82;;;3.30;;
23078;SDS011;11707;50.830;4.364;2023-07-31T08:13:36;7.70;;;2.97;;
23078;SDS011;11707;50.830;4.364;2023-07-31T08:16:02;7.88;;;2.80;;
23078;SDS011;11707;50.830;4.364;2023-07-31T08:18:28;5.00;;;2.80;;
23078;SDS011;11707;50.830;4.364;2023-07-31T08:20:55;8.50;;;3.50;;
23078;SDS011;11707;50.830;4.364;2023-07-31T08:23:23;9.23;;;3.67;;
23078;SDS011;11707;50.830;4.364;2023-07-31T08:25:49;8.65;;;2.85;;
23078;SDS011;11707;50.830;4.364;2023-07-31T08:28:17;11.10;;;3.60;;
23078;SDS011;11707;50.830;4.364;2023-07-31T08:30:42;7.47;;;3.35;;
23078;SDS011;11707;50.830;4.364;2023-07-31T08:33:08;7.10;;;3.08;;
23078;SDS011;11707;50.830;4.364;2023-07-31T08:35:34;9.50;;;3.33;;
23078;SDS011;11707;50.830;4.364;2023-07-31T08:38:02;8.02;;;3.58;;
23078;SDS011;11707;50.830;4.364;2023-07-31T08:40:28;6.40;;;2.67;;
23078;SDS011;11707;50.830;4.364;2023-07-31T08:42:54;7.90;;;3.22;;
23078;SDS011;11707;50.830;4.364;2023-07-31T08:45:27;8.97;;;3.43;;
23078;SDS011;11707;50.830;4.364;2023-07-31T08:47:53;7.22;;;2.97;;
23078;SDS011;11707;50.830;4.364;2023-07-31T08:50:20;8.38;;;4.05;;
23078;SDS011;11707;50.830;4.364;2023-07-31T08:52:49;8.75;;;3.38;;
23078;SDS011;11707;50.830;4.364;2023-07-31T08:55:18;7.07;;;3.20;;
23078;SDS011;11707;50.830;4.364;2023-07-31T08:57:48;5.18;;;3.42;;
23078;SDS011;11707;50.830;4.364;2023-07-31T09:00:17;7.10;;;3.08;;
23078;SDS011;11707;50.830;4.364;2023-07-31T09:03:00;7.40;;;3.67;;
23078;SDS011;11707;50.830;4.364;2023-07-31T09:05:31;11.15;;;3.15;;
23078;SDS011;11707;50.830;4.364;2023-07-31T09:07:57;11.45;;;2.95;;
23078;SDS011;11707;50.830;4.364;2023-07-31T09:10:23;7.60;;;3.00;;
23078;SDS011;11707;50.830;4.364;2023-07-31T09:12:50;6.90;;;3.28;;
23078;SDS011;11707;50.830;4.364;2023-07-31T09:15:19;9.95;;;3.60;;
23078;SDS011;11707;50.830;4.364;2023-07-31T09:17:50;7.25;;;3.15;;
23078;SDS011;11707;50.830;4.364;2023-07-31T09:20:25;6.97;;;3.65;;
23078;SDS011;11707;50.830;4.364;2023-07-31T09:22:51;7.45;;;3.13;;
23078;SDS011;11707;50.830;4.364;2023-07-31T09:25:23;10.43;;;3.85;;
23078;SDS011;11707;50.830;4.364;2023-07-31T09:30:20;11.82;;;4.68;;
23078;SDS011;11707;50.830;4.364;2023-07-31T09:32:47;7.40;;;3.72;;
23078;SDS011;11707;50.830;4.364;2023-07-31T09:37:57;12.27;;;4.03;;
23078;SDS011;11707;50.830;4.364;2023-07-31T09:40:25;11.20;;;4.97;;
23078;SDS011;11707;50.830;4.364;2023-07-31T09:42:51;8.30;;;4.32;;
23078;SDS011;11707;50.830;4.364;2023-07-31T09:45:17;12.95;;;4.55;;
23078;SDS011;11707;50.830;4.364;2023-07-31T09:47:47;8.07;;;3.90;;
23078;SDS011;11707;50.830;4.364;2023-07-31T09:50:14;9.85;;;4.35;;
23078;SDS011;11707;50.830;4.364;2023-07-31T09:52:42;12.10;;;5.30;;
23078;SDS011;11707;50.830;4.364;2023-07-31T09:55:08;10.43;;;4.57;;
23078;SDS011;11707;50.830;4.364;2023-07-31T09:57:37;12.82;;;5.28;;
23078;SDS011;11707;50.830;4.364;2023-07-31T10:00:06;11.40;;;5.40;;
23078;SDS011;11707;50.830;4.364;2023-07-31T10:02:34;10.50;;;5.30;;
23078;SDS011;11707;50.830;4.364;2023-07-31T10:05:02;10.07;;;5.07;;
23078;SDS011;11707;50.830;4.364;2023-07-31T10:07:30;16.88;;;5.32;;
23078;SDS011;11707;50.830;4.364;2023-07-31T10:09:59;12.00;;;5.45;;
23078;SDS011;11707;50.830;4.364;2023-07-31T10:12:26;15.60;;;5.72;;
23078;SDS011;11707;50.830;4.364;2023-07-31T10:14:55;13.10;;;5.57;;
23078;SDS011;11707;50.830;4.364;2023-07-31T10:17:22;11.80;;;6.45;;
23078;SDS011;11707;50.830;4.364;2023-07-31T10:19:49;12.30;;;5.45;;
23078;SDS011;11707;50.830;4.364;2023-07-31T10:22:15;12.10;;;5.95;;
23078;SDS011;11707;50.830;4.364;2023-07-31T10:24:45;13.05;;;6.15;;
23078;SDS011;11707;50.830;4.364;2023-07-31T10:27:13;12.90;;;6.65;;
23078;SDS011;11707;50.830;4.364;2023-07-31T10:29:39;13.38;;;7.28;;
23078;SDS011;11707;50.830;4.364;2023-07-31T10:32:08;14.57;;;6.53;;
23078;SDS011;11707;50.830;4.364;2023-07-31T10:34:36;12.35;;;7.30;;
23078;SDS011;11707;50.830;4.364;2023-07-31T10:42:49;10.77;;;5.95;;
23078;SDS011;11707;50.830;4.364;2023-07-31T10:45:24;11.00;;;6.07;;
23078;SDS011;11707;50.830;4.364;2023-07-31T10:47:59;15.05;;;6.22;;
23078;SDS011;11707;50.830;4.364;2023-07-31T10:50:38;15.70;;;5.25;;
23078;SDS011;11707;50.830;4.364;2023-07-31T10:53:25;9.65;;;4.95;;
23078;SDS011;11707;50.830;4.364;2023-07-31T10:55:53;10.30;;;4.43;;
23078;SDS011;11707;50.830;4.364;2023-07-31T10:58:23;8.27;;;4.50;;
23078;SDS011;11707;50.830;4.364;2023-07-31T11:00:49;11.73;;;5.03;;
23078;SDS011;11707;50.830;4.364;2023-07-31T11:03:17;10.55;;;4.82;;
23078;SDS011;11707;50.830;4.364;2023-07-31T11:08:29;13.32;;;5.30;;
23078;SDS011;11707;50.830;4.364;2023-07-31T11:13:31;11.32;;;4.50;;
23078;SDS011;11707;50.830;4.364;2023-07-31T11:15:59;10.90;;;5.35;;
23078;SDS011;11707;50.830;4.364;2023-07-31T11:18:28;10.90;;;5.45;;
23078;SDS011;11707;50.830;4.364;2023-07-31T11:20:53;14.15;;;7.57;;
23078;SDS011;11707;50.830;4.364;2023-07-31T11:23:19;9.00;;;4.18;;
23078;SDS011;11707;50.830;4.364;2023-07-31T11:25:46;10.20;;;4.28;;
23078;SDS011;11707;50.830;4.364;2023-07-31T11:28:13;13.70;;;5.03;;
23078;SDS011;11707;50.830;4.364;2023-07-31T11:30:43;9.23;;;4.57;;
23078;SDS011;11707;50.830;4.364;2023-07-31T11:33:12;10.27;;;4.80;;
23078;SDS011;11707;50.830;4.364;2023-07-31T11:35:45;11.20;;;4.95;;
23078;SDS011;11707;50.830;4.364;2023-07-31T11:38:26;13.88;;;5.50;;
23078;SDS011;11707;50.830;4.364;2023-07-31T11:40:59;9.88;;;5.25;;
23078;SDS011;11707;50.830;4.364;2023-07-31T11:43:30;7.90;;;4.32;;
23078;SDS011;11707;50.830;4.364;2023-07-31T11:45:57;10.20;;;4.03;;
23078;SDS011;11707;50.830;4.364;2023-07-31T11:48:26;13.27;;;4.72;;
23078;SDS011;11707;50.830;4.364;2023-07-31T11:50:55;11.90;;;5.22;;
23078;SDS011;11707;50.830;4.364;2023-07-31T11:53:39;11.32;;;5.38;;
23078;SDS011;11707;50.830;4.364;2023-07-31T11:56:16;15.30;;;6.20;;
23078;SDS011;11707;50.830;4.364;2023-07-31T11:58:44;13.40;;;4.85;;
23078;SDS011;11707;50.830;4.364;2023-07-31T12:01:13;8.70;;;4.22;;
23078;SDS011;11707;50.830;4.364;2023-07-31T12:03:40;10.30;;;4.75;;
23078;SDS011;11707;50.830;4.364;2023-07-31T12:06:09;8.35;;;4.38;;
23078;SDS011;11707;50.830;4.364;2023-07-31T12:08:34;10.50;;;5.55;;
23078;SDS011;11707;50.830;4.364;2023-07-31T12:11:05;11.70;;;4.80;;
23078;SDS011;11707;50.830;4.364;2023-07-31T12:13:38;10.05;;;4.78;;
23078;SDS011;11707;50.830;4.364;2023-07-31T12:16:04;10.38;;;4.90;;
23078;SDS011;11707;50.830;4.364;2023-07-31T12:18:33;9.80;;;4.43;;
23078;SDS011;11707;50.830;4.364;2023-07-31T12:21:02;12.98;;;4.85;;
23078;SDS011;11707;50.830;4.364;2023-07-31T12:23:35;9.48;;;5.82;;
23078;SDS011;11707;50.830;4.364;2023-07-31T12:31:03;10.68;;;3.95;;
23078;SDS011;11707;50.830;4.364;2023-07-31T12:33:33;9.68;;;5.13;;
23078;SDS011;11707;50.830;4.364;2023-07-31T12:36:01;14.13;;;5.93;;
23078;SDS011;11707;50.830;4.364;2023-07-31T12:38:28;9.48;;;4.70;;
23078;SDS011;11707;50.830;4.364;2023-07-31T12:40:56;11.80;;;4.18;;
23078;SDS011;11707;50.830;4.364;2023-07-31T12:43:22;8.15;;;4.15;;
23078;SDS011;11707;50.830;4.364;2023-07-31T12:45:47;12.25;;;5.55;;
23078;SDS011;11707;50.830;4.364;2023-07-31T12:48:13;13.80;;;5.05;;
23078;SDS011;11707;50.830;4.364;2023-07-31T12:50:41;12.18;;;4.57;;
23078;SDS011;11707;50.830;4.364;2023-07-31T12:53:06;8.77;;;4.43;;
23078;SDS011;11707;50.830;4.364;2023-07-31T12:55:32;11.40;;;4.50;;
23078;SDS011;11707;50.830;4.364;2023-07-31T12:57:59;13.90;;;4.30;;
23078;SDS011;11707;50.830;4.364;2023-07-31T13:00:28;10.32;;;4.18;;
23078;SDS011;11707;50.830;4.364;2023-07-31T13:02:54;14.02;;;3.95;;
23078;SDS011;11707;50.830;4.364;2023-07-31T13:05:20;9.80;;;4.50;;
23078;SDS011;11707;50.830;4.364;2023-07-31T13:07:46;11.30;;;4.60;;
23078;SDS011;11707;50.830;4.364;2023-07-31T13:10:12;11.10;;;4.00;;
23078;SDS011;11707;50.830;4.364;2023-07-31T13:12:40;9.00;;;3.72;;
23078;SDS011;11707;50.830;4.364;2023-07-31T13:15:06;9.23;;;3.35;;
23078;SDS011;11707;50.830;4.364;2023-07-31T13:17:32;6.88;;;3.03;;
23078;SDS011;11707;50.830;4.364;2023-07-31T13:19:59;5.57;;;2.92;;
23078;SDS011;11707;50.830;4.364;2023-07-31T13:22:24;6.75;;;4.18;;
23078;SDS011;11707;50.830;4.364;2023-07-31T13:24:51;9.48;;;3.88;;
23078;SDS011;11707;50.830;4.364;2023-07-31T13:27:17;8.32;;;3.90;;
23078;SDS011;11707;50.830;4.364;2023-07-31T13:29:44;6.53;;;3.15;;
23078;SDS011;11707;50.830;4.364;2023-07-31T13:32:13;6.93;;;3.20;;
23078;SDS011;11707;50.830;4.364;2023-07-31T13:34:38;8.25;;;3.10;;
23078;SDS011;11707;50.830;4.364;2023-07-31T13:37:04;8.20;;;3.22;;
23078;SDS011;11707;50.830;4.364;2023-07-31T13:39:35;7.55;;;3.75;;
23078;SDS011;11707;50.830;4.364;2023-07-31T13:42:02;6.28;;;3.08;;
23078;SDS011;11707;50.830;4.364;2023-07-31T13:44:31;8.07;;;4.38;;
23078;SDS011;11707;50.830;4.364;2023-07-31T13:47:01;9.10;;;4.10;;
23078;SDS011;11707;50.830;4.364;2023-07-31T13:49:29;7.05;;;4.00;;
23078;SDS011;11707;50.830;4.364;2023-07-31T13:51:55;9.38;;;3.67;;
23078;SDS011;11707;50.830;4.364;2023-07-31T13:54:24;11.35;;;4.85;;
23078;SDS011;11707;50.830;4.364;2023-07-31T13:56:50;8.40;;;3.97;;
23078;SDS011;11707;50.830;4.364;2023-07-31T13:59:20;10.07;;;4.18;;
23078;SDS011;11707;50.830;4.364;2023-07-31T14:01:48;7.32;;;4.85;;
23078;SDS011;11707;50.830;4.364;2023-07-31T14:04:15;7.72;;;4.43;;
23078;SDS011;11707;50.830;4.364;2023-07-31T14:06:42;10.52;;;4.43;;
23078;SDS011;11707;50.830;4.364;2023-07-31T14:09:08;7.53;;;3.80;;
23078;SDS011;11707;50.830;4.364;2023-07-31T14:11:36;11.00;;;4.28;;
23078;SDS011;11707;50.830;4.364;2023-07-31T14:14:02;10.45;;;4.28;;
23078;SDS011;11707;50.830;4.364;2023-07-31T14:16:30;8.10;;;3.83;;
23078;SDS011;11707;50.830;4.364;2023-07-31T14:18:56;8.45;;;4.40;;
23078;SDS011;11707;50.830;4.364;2023-07-31T14:21:24;12.77;;;3.97;;
23078;SDS011;11707;50.830;4.364;2023-07-31T14:23:52;9.05;;;4.05;;
23078;SDS011;11707;50.830;4.364;2023-07-31T14:26:18;6.20;;;3.80;;
23078;SDS011;11707;50.830;4.364;2023-07-31T14:28:46;7.43;;;3.70;;
23078;SDS011;11707;50.830;4.364;2023-07-31T14:31:14;8.20;;;4.90;;
23078;SDS011;11707;50.830;4.364;2023-07-31T14:33:42;8.70;;;4.68;;
23078;SDS011;11707;50.830;4.364;2023-07-31T14:36:07;11.93;;;5.53;;
23078;SDS011;11707;50.830;4.364;2023-07-31T14:38:33;8.73;;;3.50;;
23078;SDS011;11707;50.830;4.364;2023-07-31T14:40:59;16.80;;;3.88;;
23078;SDS011;11707;50.830;4.364;2023-07-31T14:43:24;5.85;;;3.22;;
23078;SDS011;11707;50.830;4.364;2023-07-31T14:45:50;5.95;;;2.67;;
23078;SDS011;11707;50.830;4.364;2023-07-31T14:48:19;4.28;;;3.10;;
23078;SDS011;11707;50.830;4.364;2023-07-31T14:50:45;9.18;;;3.03;;
23078;SDS011;11707;50.830;4.364;2023-07-31T14:53:10;9.68;;;3.00;;
23078;SDS011;11707;50.830;4.364;2023-07-31T14:55:36;4.78;;;2.70;;
23078;SDS011;11707;50.830;4.364;2023-07-31T14:58:01;6.15;;;2.65;;
23078;SDS011;11707;50.830;4.364;2023-07-31T15:00:28;6.75;;;2.88;;
23078;SDS011;11707;50.830;4.364;2023-07-31T15:02:53;5.43;;;2.63;;
23078;SDS011;11707;50.830;4.364;2023-07-31T15:05:19;5.55;;;2.60;;
23078;SDS011;11707;50.830;4.364;2023-07-31T15:07:47;6.28;;;2.83;;